createdAt,value
2018-04-30T00:00:47.225Z,984.5
2018-04-30T00:01:48.664Z,984.6
2018-04-30T00:02:50.055Z,984.6
2018-04-30T00:03:51.449Z,984.7
2018-04-30T00:04:52.853Z,984.6
2018-04-30T00:05:54.236Z,984.7
2018-04-30T00:06:55.631Z,984.8
2018-04-30T00:07:57.016Z,984.8
2018-04-30T00:08:58.449Z,984.9
2018-04-30T00:09:59.840Z,984.9
2018-04-30T00:11:01.231Z,985.0
2018-04-30T00:12:02.676Z,985.3
2018-04-30T00:13:04.060Z,985.4
2018-04-30T00:14:05.451Z,985.5
2018-04-30T00:15:06.845Z,985.4
2018-04-30T00:16:08.240Z,985.5
2018-04-30T00:17:09.632Z,985.4
2018-04-30T00:18:11.025Z,985.3
2018-04-30T00:19:12.418Z,985.1
2018-04-30T00:20:13.815Z,985.0
2018-04-30T00:21:15.200Z,985.0
2018-04-30T00:22:16.593Z,984.9
2018-04-30T00:23:18.020Z,984.9
2018-04-30T00:24:19.407Z,984.9
2018-04-30T00:25:20.802Z,984.9
2018-04-30T00:26:22.192Z,985.0
2018-04-30T00:27:23.621Z,985.1
2018-04-30T00:28:25.014Z,985.2
2018-04-30T00:29:26.703Z,985.3
2018-04-30T00:30:28.094Z,985.2
2018-04-30T00:31:29.540Z,985.1
2018-04-30T00:32:30.926Z,985.1
2018-04-30T00:33:32.404Z,984.9
2018-04-30T00:34:33.711Z,984.7
2018-04-30T00:35:35.117Z,984.5
2018-04-30T00:36:36.491Z,984.5
2018-04-30T00:37:37.898Z,984.5
2018-04-30T00:38:39.281Z,984.3
2018-04-30T00:39:40.674Z,984.2
2018-04-30T00:40:42.065Z,984.0
2018-04-30T00:41:43.460Z,983.9
2018-04-30T00:42:44.849Z,983.7
2018-04-30T00:43:46.243Z,983.8
2018-04-30T00:44:47.633Z,983.8
2018-04-30T00:45:49.025Z,983.8
2018-04-30T00:46:50.418Z,983.8
2018-04-30T00:47:51.809Z,983.9
2018-04-30T00:48:53.201Z,984.0
2018-04-30T00:49:54.597Z,984.1
2018-04-30T00:50:56.040Z,984.1
2018-04-30T00:51:57.425Z,984.2
2018-04-30T00:52:58.818Z,984.3
2018-04-30T00:54:00.243Z,984.3
2018-04-30T00:55:01.638Z,984.4
2018-04-30T00:56:03.119Z,984.5
2018-04-30T00:57:04.508Z,984.5
2018-04-30T00:58:05.965Z,984.6
2018-04-30T00:59:07.356Z,984.6
2018-04-30T01:00:08.752Z,984.6
2018-04-30T01:01:10.142Z,984.7
2018-04-30T01:02:11.538Z,984.7
2018-04-30T01:03:12.944Z,984.7
2018-04-30T01:04:14.328Z,984.7
2018-04-30T01:05:15.720Z,984.7
2018-04-30T01:06:17.115Z,984.6
2018-04-30T01:07:18.503Z,984.6
2018-04-30T01:08:19.926Z,984.6
2018-04-30T01:09:21.319Z,984.7
2018-04-30T01:10:22.708Z,984.7
2018-04-30T01:11:24.104Z,984.7
2018-04-30T01:12:25.492Z,984.7
2018-04-30T01:13:26.880Z,984.7
2018-04-30T01:14:28.276Z,984.7
2018-04-30T01:15:29.668Z,984.7
2018-04-30T01:16:31.058Z,984.8
2018-04-30T01:17:32.444Z,984.8
2018-04-30T01:18:33.943Z,984.8
2018-04-30T01:19:35.358Z,984.8
2018-04-30T01:20:36.751Z,984.8
2018-04-30T01:21:38.168Z,984.8
2018-04-30T01:22:39.560Z,984.7
2018-04-30T01:23:40.984Z,984.7
2018-04-30T01:24:42.374Z,984.7
2018-04-30T01:25:43.767Z,984.7
2018-04-30T01:26:45.157Z,984.7
2018-04-30T01:27:46.552Z,984.7
2018-04-30T01:28:47.963Z,984.6
2018-04-30T01:29:49.357Z,984.6
2018-04-30T01:30:50.751Z,984.6
2018-04-30T01:31:52.143Z,984.6
2018-04-30T01:32:53.535Z,984.6
2018-04-30T01:33:54.927Z,984.6
2018-04-30T01:34:56.319Z,984.6
2018-04-30T01:35:57.708Z,984.6
2018-04-30T01:36:59.102Z,984.6
2018-04-30T01:38:00.492Z,984.7
2018-04-30T01:39:01.919Z,984.6
2018-04-30T01:40:03.311Z,984.6
2018-04-30T01:41:04.707Z,984.6
2018-04-30T01:42:06.098Z,984.6
2018-04-30T01:43:07.500Z,984.6
2018-04-30T01:44:08.894Z,984.6
2018-04-30T01:45:10.284Z,984.5
2018-04-30T01:46:11.676Z,984.5
2018-04-30T01:47:13.075Z,984.6
2018-04-30T01:48:14.470Z,984.6
2018-04-30T01:49:15.862Z,984.6
2018-04-30T01:50:17.256Z,984.7
2018-04-30T01:51:18.652Z,984.7
2018-04-30T01:52:20.041Z,984.8
2018-04-30T01:53:21.481Z,984.8
2018-04-30T01:54:22.885Z,984.8
2018-04-30T01:55:24.279Z,984.8
2018-04-30T01:56:25.670Z,984.8
2018-04-30T01:57:27.061Z,984.7
2018-04-30T01:58:28.459Z,984.8
2018-04-30T01:59:29.850Z,984.8
2018-04-30T02:00:31.239Z,984.8
2018-04-30T02:01:32.629Z,984.8
2018-04-30T02:02:34.021Z,984.8
2018-04-30T02:03:35.412Z,984.8
2018-04-30T02:04:36.806Z,984.7
2018-04-30T02:05:38.227Z,984.8
2018-04-30T02:06:39.617Z,984.7
2018-04-30T02:07:41.199Z,984.7
2018-04-30T02:08:42.624Z,984.7
2018-04-30T02:09:44.045Z,984.7
2018-04-30T02:10:45.438Z,984.7
2018-04-30T02:11:46.830Z,984.7
2018-04-30T02:12:48.223Z,984.6
2018-04-30T02:13:49.658Z,984.6
2018-04-30T02:14:51.047Z,984.6
2018-04-30T02:15:52.439Z,984.5
2018-04-30T02:16:53.851Z,984.4
2018-04-30T02:17:55.240Z,984.4
2018-04-30T02:18:56.630Z,984.4
2018-04-30T02:19:58.024Z,984.4
2018-04-30T02:20:59.413Z,984.3
2018-04-30T02:22:00.803Z,984.4
2018-04-30T02:23:02.194Z,984.4
2018-04-30T02:24:03.584Z,984.3
2018-04-30T02:25:04.979Z,984.3
2018-04-30T02:26:06.373Z,984.3
2018-04-30T02:27:07.769Z,984.2
2018-04-30T02:28:09.159Z,984.3
2018-04-30T02:29:10.551Z,984.3
2018-04-30T02:30:11.940Z,984.3
2018-04-30T02:31:13.361Z,984.2
2018-04-30T02:32:14.748Z,984.2
2018-04-30T02:33:16.142Z,984.2
2018-04-30T02:34:17.535Z,984.2
2018-04-30T02:35:18.922Z,984.3
2018-04-30T02:36:20.314Z,984.2
2018-04-30T02:37:21.739Z,984.3
2018-04-30T02:38:23.135Z,984.3
2018-04-30T02:39:24.539Z,984.4
2018-04-30T02:40:25.920Z,984.4
2018-04-30T02:41:27.313Z,984.4
2018-04-30T02:42:28.701Z,984.4
2018-04-30T02:43:30.091Z,984.3
2018-04-30T02:44:31.526Z,984.4
2018-04-30T02:45:32.917Z,984.3
2018-04-30T02:46:34.306Z,984.4
2018-04-30T02:47:35.697Z,984.3
2018-04-30T02:48:37.092Z,984.3
2018-04-30T02:49:38.477Z,984.3
2018-04-30T02:50:39.871Z,984.3
2018-04-30T02:51:41.260Z,984.3
2018-04-30T02:52:42.651Z,984.3
2018-04-30T02:53:44.047Z,984.3
2018-04-30T02:54:45.443Z,984.3
2018-04-30T02:55:46.831Z,984.3
2018-04-30T02:56:48.299Z,984.3
2018-04-30T02:57:49.840Z,984.1
2018-04-30T02:58:51.231Z,984.1
2018-04-30T02:59:52.622Z,984.1
2018-04-30T03:00:54.016Z,984.1
2018-04-30T03:01:55.443Z,984.1
2018-04-30T03:02:56.839Z,984.2
2018-04-30T03:03:58.261Z,984.2
2018-04-30T03:04:59.649Z,984.2
2018-04-30T03:06:01.041Z,984.2
2018-04-30T03:07:02.459Z,984.3
2018-04-30T03:08:03.860Z,984.3
2018-04-30T03:09:05.249Z,984.3
2018-04-30T03:10:06.634Z,984.3
2018-04-30T03:11:08.024Z,984.4
2018-04-30T03:12:09.413Z,984.4
2018-04-30T03:13:10.802Z,984.4
2018-04-30T03:14:12.191Z,984.5
2018-04-30T03:15:13.594Z,984.5
2018-04-30T03:16:14.973Z,984.5
2018-04-30T03:17:16.362Z,984.6
2018-04-30T03:18:17.753Z,984.6
2018-04-30T03:19:19.229Z,984.7
2018-04-30T03:20:20.628Z,984.6
2018-04-30T03:21:22.033Z,984.6
2018-04-30T03:22:23.438Z,984.6
2018-04-30T03:23:24.831Z,984.6
2018-04-30T03:24:26.218Z,984.6
2018-04-30T03:25:27.607Z,984.6
2018-04-30T03:26:28.997Z,984.7
2018-04-30T03:27:30.389Z,984.7
2018-04-30T03:28:31.783Z,984.8
2018-04-30T03:29:33.184Z,984.8
2018-04-30T03:30:34.577Z,984.9
2018-04-30T03:31:35.968Z,984.9
2018-04-30T03:32:37.360Z,984.9
2018-04-30T03:33:38.749Z,984.9
2018-04-30T03:34:40.140Z,984.8
2018-04-30T03:35:41.525Z,984.8
2018-04-30T03:36:42.942Z,984.9
2018-04-30T03:37:44.378Z,984.8
2018-04-30T03:38:45.774Z,984.9
2018-04-30T03:39:47.162Z,984.9
2018-04-30T03:40:48.552Z,984.9
2018-04-30T03:41:49.947Z,984.9
2018-04-30T03:42:51.338Z,984.9
2018-04-30T03:43:52.727Z,984.9
2018-04-30T03:44:54.121Z,984.9
2018-04-30T03:45:55.505Z,985.0
2018-04-30T03:46:57.132Z,985.0
2018-04-30T03:47:58.556Z,985.1
2018-04-30T03:48:59.952Z,985.1
2018-04-30T03:50:01.345Z,985.2
2018-04-30T03:51:02.765Z,985.1
2018-04-30T03:52:04.153Z,985.1
2018-04-30T03:53:05.544Z,985.2
2018-04-30T03:54:06.935Z,985.1
2018-04-30T03:55:08.338Z,985.1
2018-04-30T03:56:09.726Z,985.1
2018-04-30T03:57:11.116Z,985.2
2018-04-30T03:58:12.509Z,985.2
2018-04-30T03:59:13.910Z,985.2
2018-04-30T04:00:15.332Z,985.1
2018-04-30T04:01:16.741Z,985.1
2018-04-30T04:02:18.139Z,985.1
2018-04-30T04:03:19.528Z,985.1
2018-04-30T04:04:20.917Z,985.1
2018-04-30T04:05:22.305Z,985.0
2018-04-30T04:06:23.702Z,984.9
2018-04-30T04:07:25.097Z,984.9
2018-04-30T04:08:26.485Z,984.9
2018-04-30T04:09:27.879Z,984.9
2018-04-30T04:10:29.265Z,984.9
2018-04-30T04:11:30.657Z,984.9
2018-04-30T04:12:32.052Z,985.0
2018-04-30T04:13:33.494Z,985.0
2018-04-30T04:14:34.884Z,985.0
2018-04-30T04:15:36.272Z,985.0
2018-04-30T04:16:37.663Z,985.0
2018-04-30T04:17:39.050Z,985.0
2018-04-30T04:18:40.442Z,985.0
2018-04-30T04:19:41.835Z,985.0
2018-04-30T04:20:43.316Z,984.9
2018-04-30T04:21:44.706Z,984.9
2018-04-30T04:22:46.102Z,984.9
2018-04-30T04:23:47.493Z,984.8
2018-04-30T04:24:48.921Z,984.8
2018-04-30T04:25:50.313Z,984.8
2018-04-30T04:26:51.771Z,984.9
2018-04-30T04:27:53.162Z,984.9
2018-04-30T04:28:54.556Z,984.9
2018-04-30T04:29:55.950Z,984.9
2018-04-30T04:30:57.344Z,984.9
2018-04-30T04:31:58.736Z,984.9
2018-04-30T04:33:00.737Z,984.9
2018-04-30T04:34:01.472Z,985.0
2018-04-30T04:35:02.868Z,985.0
2018-04-30T04:36:04.363Z,985.0
2018-04-30T04:37:05.761Z,985.0
2018-04-30T04:38:07.175Z,985.0
2018-04-30T04:39:08.569Z,985.0
2018-04-30T04:40:09.959Z,984.9
2018-04-30T04:41:11.364Z,985.0
2018-04-30T04:42:12.755Z,984.9
2018-04-30T04:43:14.145Z,985.0
2018-04-30T04:44:15.533Z,985.0
2018-04-30T04:45:16.923Z,985.0
2018-04-30T04:46:18.321Z,985.0
2018-04-30T04:47:19.708Z,985.0
2018-04-30T04:48:21.121Z,985.0
2018-04-30T04:49:22.514Z,985.0
2018-04-30T04:50:24.012Z,985.0
2018-04-30T04:51:25.407Z,985.1
2018-04-30T04:52:26.799Z,985.1
2018-04-30T04:53:28.216Z,985.2
2018-04-30T04:54:29.605Z,985.2
2018-04-30T04:55:30.999Z,985.3
2018-04-30T04:56:32.387Z,985.3
2018-04-30T04:57:33.782Z,985.3
2018-04-30T04:58:35.176Z,985.3
2018-04-30T04:59:36.577Z,985.3
2018-04-30T05:00:37.971Z,985.2
2018-04-30T05:01:39.353Z,985.2
2018-04-30T05:02:40.743Z,985.2
2018-04-30T05:03:42.139Z,985.2
2018-04-30T05:04:43.534Z,985.1
2018-04-30T05:05:44.923Z,985.1
2018-04-30T05:06:46.314Z,985.2
2018-04-30T05:07:47.716Z,985.1
2018-04-30T05:08:49.108Z,985.2
2018-04-30T05:09:50.502Z,985.1
2018-04-30T05:10:51.945Z,985.1
2018-04-30T05:11:53.294Z,985.2
2018-04-30T05:12:54.685Z,985.3
2018-04-30T05:13:56.078Z,985.3
2018-04-30T05:14:57.470Z,985.3
2018-04-30T05:15:58.862Z,985.3
2018-04-30T05:17:00.258Z,985.3
2018-04-30T05:18:01.655Z,985.4
2018-04-30T05:19:03.051Z,985.4
2018-04-30T05:20:04.447Z,985.4
2018-04-30T05:21:05.838Z,985.5
2018-04-30T05:22:07.237Z,985.5
2018-04-30T05:23:08.629Z,985.5
2018-04-30T05:24:10.022Z,985.5
2018-04-30T05:25:11.647Z,985.5
2018-04-30T05:26:13.124Z,985.5
2018-04-30T05:27:14.522Z,985.6
2018-04-30T05:28:15.916Z,985.6
2018-04-30T05:29:17.310Z,985.6
2018-04-30T05:30:18.704Z,985.7
2018-04-30T05:31:20.099Z,985.8
2018-04-30T05:32:21.492Z,985.8
2018-04-30T05:33:22.889Z,985.8
2018-04-30T05:34:24.276Z,985.8
2018-04-30T05:35:25.671Z,985.7
2018-04-30T05:36:27.068Z,985.7
2018-04-30T05:37:28.463Z,985.7
2018-04-30T05:38:29.866Z,985.7
2018-04-30T05:39:31.254Z,985.7
2018-04-30T05:40:32.649Z,985.6
2018-04-30T05:41:34.042Z,985.7
2018-04-30T05:42:35.431Z,985.7
2018-04-30T05:43:36.824Z,985.7
2018-04-30T05:44:38.215Z,985.7
2018-04-30T05:45:39.609Z,985.7
2018-04-30T05:46:41.007Z,985.7
2018-04-30T05:47:42.406Z,985.6
2018-04-30T05:48:43.798Z,985.6
2018-04-30T05:49:45.188Z,985.6
2018-04-30T05:50:46.583Z,985.6
2018-04-30T05:51:47.983Z,985.5
2018-04-30T05:52:49.378Z,985.5
2018-04-30T05:53:50.772Z,985.5
2018-04-30T05:54:52.165Z,985.5
2018-04-30T05:55:53.563Z,985.5
2018-04-30T05:56:54.957Z,985.4
2018-04-30T05:57:56.352Z,985.4
2018-04-30T05:58:57.754Z,985.4
2018-04-30T05:59:59.150Z,985.3
2018-04-30T06:01:00.543Z,985.3
2018-04-30T06:02:01.945Z,985.4
2018-04-30T06:03:03.335Z,985.5
2018-04-30T06:04:04.733Z,985.5
2018-04-30T06:05:06.132Z,985.7
2018-04-30T06:06:07.522Z,985.8
2018-04-30T06:07:08.943Z,985.9
2018-04-30T06:08:10.338Z,986.0
2018-04-30T06:09:11.729Z,986.1
2018-04-30T06:10:13.130Z,986.2
2018-04-30T06:11:14.507Z,986.2
2018-04-30T06:12:15.964Z,986.2
2018-04-30T06:13:17.291Z,986.2
2018-04-30T06:14:18.829Z,986.2
2018-04-30T06:15:20.280Z,986.2
2018-04-30T06:16:21.677Z,986.2
2018-04-30T06:17:23.069Z,986.2
2018-04-30T06:18:24.492Z,986.2
2018-04-30T06:19:25.894Z,986.2
2018-04-30T06:20:27.283Z,986.2
2018-04-30T06:21:28.746Z,986.2
2018-04-30T06:22:30.087Z,986.3
2018-04-30T06:23:31.481Z,986.2
2018-04-30T06:24:32.874Z,986.3
2018-04-30T06:25:34.268Z,986.2
2018-04-30T06:26:35.739Z,986.2
2018-04-30T06:27:37.057Z,986.2
2018-04-30T06:28:38.451Z,986.2
2018-04-30T06:29:39.851Z,986.3
2018-04-30T06:30:41.248Z,986.2
2018-04-30T06:31:42.644Z,986.2
2018-04-30T06:32:44.037Z,986.2
2018-04-30T06:33:45.425Z,986.1
2018-04-30T06:34:46.819Z,986.1
2018-04-30T06:35:48.306Z,986.1
2018-04-30T06:36:49.617Z,986.1
2018-04-30T06:37:51.010Z,986.1
2018-04-30T06:38:52.400Z,986.1
2018-04-30T06:39:53.793Z,986.1
2018-04-30T06:40:55.185Z,986.0
2018-04-30T06:41:56.580Z,986.1
2018-04-30T06:42:57.973Z,986.1
2018-04-30T06:43:59.364Z,986.1
2018-04-30T06:45:00.759Z,986.1
2018-04-30T06:46:02.154Z,986.0
2018-04-30T06:47:03.546Z,986.1
2018-04-30T06:48:04.939Z,986.1
2018-04-30T06:49:06.330Z,986.1
2018-04-30T06:50:07.731Z,986.1
2018-04-30T06:51:09.123Z,986.2
2018-04-30T06:52:10.518Z,986.1
2018-04-30T06:53:11.914Z,986.1
2018-04-30T06:54:13.309Z,986.0
2018-04-30T06:55:14.712Z,986.1
2018-04-30T06:56:16.100Z,986.1
2018-04-30T06:57:17.495Z,986.1
2018-04-30T06:58:18.887Z,986.0
2018-04-30T06:59:20.284Z,986.0
2018-04-30T07:00:21.705Z,986.0
2018-04-30T07:01:23.063Z,986.0
2018-04-30T07:02:24.460Z,986.0
2018-04-30T07:03:25.976Z,986.1
2018-04-30T07:04:27.420Z,986.0
2018-04-30T07:05:28.815Z,986.1
2018-04-30T07:06:30.209Z,986.1
2018-04-30T07:07:31.601Z,986.1
2018-04-30T07:08:32.993Z,986.1
2018-04-30T07:09:34.510Z,986.1
2018-04-30T07:10:35.790Z,986.1
2018-04-30T07:11:37.196Z,986.2
2018-04-30T07:12:38.591Z,986.2
2018-04-30T07:13:39.991Z,986.1
2018-04-30T07:14:41.381Z,986.2
2018-04-30T07:15:42.772Z,986.2
2018-04-30T07:16:44.172Z,986.1
2018-04-30T07:17:45.563Z,986.2
2018-04-30T07:18:46.964Z,986.2
2018-04-30T07:19:48.360Z,986.2
2018-04-30T07:20:49.759Z,986.2
2018-04-30T07:21:51.151Z,986.4
2018-04-30T07:22:52.545Z,986.4
2018-04-30T07:23:53.967Z,986.4
2018-04-30T07:24:55.366Z,986.3
2018-04-30T07:25:56.766Z,986.4
2018-04-30T07:26:58.160Z,986.3
2018-04-30T07:27:59.555Z,986.2
2018-04-30T07:29:00.947Z,986.3
2018-04-30T07:30:02.341Z,986.3
2018-04-30T07:31:03.789Z,986.3
2018-04-30T07:32:05.390Z,986.4
2018-04-30T07:33:06.795Z,986.4
2018-04-30T07:34:08.188Z,986.4
2018-04-30T07:35:09.583Z,986.4
2018-04-30T07:36:10.976Z,986.4
2018-04-30T07:37:12.360Z,986.5
2018-04-30T07:38:13.761Z,986.4
2018-04-30T07:39:15.155Z,986.5
2018-04-30T07:40:17.177Z,986.5
2018-04-30T07:41:18.602Z,986.4
2018-04-30T07:42:19.993Z,986.5
2018-04-30T07:43:21.387Z,986.3
2018-04-30T07:44:22.945Z,986.4
2018-04-30T07:45:24.350Z,986.3
2018-04-30T07:46:25.785Z,986.3
2018-04-30T07:47:27.178Z,986.3
2018-04-30T07:48:28.636Z,986.3
2018-04-30T07:49:30.009Z,986.2
2018-04-30T07:50:31.454Z,986.3
2018-04-30T07:51:32.921Z,986.2
2018-04-30T07:52:34.322Z,986.2
2018-04-30T07:53:35.723Z,986.3
2018-04-30T07:54:37.116Z,986.3
2018-04-30T07:55:38.506Z,986.3
2018-04-30T07:56:39.902Z,986.4
2018-04-30T07:57:41.294Z,986.5
2018-04-30T07:58:42.687Z,986.4
2018-04-30T07:59:44.081Z,986.5
2018-04-30T08:00:46.714Z,986.5
2018-04-30T08:01:48.907Z,986.5
2018-04-30T08:02:50.634Z,986.6
2018-04-30T08:03:52.292Z,986.6
2018-04-30T08:04:54.272Z,986.6
2018-04-30T08:05:55.671Z,986.5
2018-04-30T08:06:57.445Z,986.4
2018-04-30T08:07:58.845Z,986.5
2018-04-30T08:09:00.240Z,986.4
2018-04-30T08:10:01.950Z,986.4
2018-04-30T08:11:03.870Z,986.4
2018-04-30T08:12:06.013Z,986.5
2018-04-30T08:13:07.391Z,986.6
2018-04-30T08:14:08.892Z,986.5
2018-04-30T08:15:10.518Z,986.6
2018-04-30T08:16:11.891Z,986.6
2018-04-30T08:17:14.102Z,986.6
2018-04-30T08:18:15.644Z,986.6
2018-04-30T08:19:17.124Z,986.6
2018-04-30T08:20:19.231Z,986.7
2018-04-30T08:21:20.678Z,986.7
2018-04-30T08:22:22.059Z,986.6
2018-04-30T08:23:23.866Z,986.6
2018-04-30T08:24:25.261Z,986.6
2018-04-30T08:25:27.114Z,986.6
2018-04-30T08:26:28.512Z,986.6
2018-04-30T08:27:30.039Z,986.6
2018-04-30T08:28:31.438Z,986.5
2018-04-30T08:29:32.828Z,986.6
2018-04-30T08:30:34.221Z,986.7
2018-04-30T08:31:35.612Z,986.7
2018-04-30T08:32:37.005Z,986.6
2018-04-30T08:33:38.434Z,986.6
2018-04-30T08:34:39.830Z,986.6
2018-04-30T08:35:41.225Z,986.6
2018-04-30T08:36:42.656Z,986.6
2018-04-30T08:37:44.015Z,986.6
2018-04-30T08:38:45.408Z,986.6
2018-04-30T08:39:46.803Z,986.7
2018-04-30T08:40:48.237Z,986.7
2018-04-30T08:41:49.628Z,986.7
2018-04-30T08:42:51.028Z,986.8
2018-04-30T08:43:52.418Z,986.8
2018-04-30T08:44:53.905Z,986.8
2018-04-30T08:45:55.304Z,986.9
2018-04-30T08:46:56.696Z,986.9
2018-04-30T08:47:58.131Z,987.0
2018-04-30T08:48:59.510Z,987.0
2018-04-30T08:50:00.906Z,987.0
2018-04-30T08:51:02.297Z,987.0
2018-04-30T08:52:03.731Z,987.0
2018-04-30T08:53:05.091Z,987.1
2018-04-30T08:54:06.536Z,987.1
2018-04-30T08:55:07.926Z,987.1
2018-04-30T08:56:09.317Z,987.1
2018-04-30T08:57:10.709Z,987.0
2018-04-30T08:58:12.109Z,987.1
2018-04-30T08:59:13.512Z,987.0
2018-04-30T09:00:14.932Z,987.1
2018-04-30T09:01:16.330Z,987.1
2018-04-30T09:02:17.722Z,987.1
2018-04-30T09:03:19.147Z,987.0
2018-04-30T09:04:20.541Z,987.1
2018-04-30T09:05:21.935Z,987.1
2018-04-30T09:06:23.367Z,987.1
2018-04-30T09:07:24.750Z,987.0
2018-04-30T09:08:26.150Z,987.1
2018-04-30T09:09:27.587Z,987.0
2018-04-30T09:10:28.994Z,987.1
2018-04-30T09:11:30.390Z,987.0
2018-04-30T09:12:31.786Z,987.0
2018-04-30T09:13:33.194Z,987.0
2018-04-30T09:14:34.590Z,987.0
2018-04-30T09:15:36.031Z,987.0
2018-04-30T09:16:37.505Z,986.9
2018-04-30T09:17:38.893Z,987.0
2018-04-30T09:18:40.284Z,987.1
2018-04-30T09:19:41.711Z,987.0
2018-04-30T09:20:43.188Z,987.0
2018-04-30T09:21:44.582Z,987.1
2018-04-30T09:22:45.974Z,987.0
2018-04-30T09:23:47.401Z,987.0
2018-04-30T09:24:48.820Z,987.1
2018-04-30T09:25:50.350Z,987.0
2018-04-30T09:26:51.880Z,987.0
2018-04-30T09:27:53.276Z,987.0
2018-04-30T09:28:54.769Z,987.0
2018-04-30T09:29:56.168Z,987.0
2018-04-30T09:30:57.585Z,987.2
2018-04-30T09:31:58.991Z,987.1
2018-04-30T09:33:00.437Z,987.1
2018-04-30T09:34:01.843Z,987.1
2018-04-30T09:35:03.484Z,987.2
2018-04-30T09:36:04.776Z,987.2
2018-04-30T09:37:06.175Z,987.1
2018-04-30T09:38:07.568Z,987.2
2018-04-30T09:39:08.982Z,987.2
2018-04-30T09:40:10.373Z,987.1
2018-04-30T09:41:11.768Z,987.3
2018-04-30T09:42:13.167Z,987.0
2018-04-30T09:43:14.555Z,987.1
2018-04-30T09:44:15.951Z,987.1
2018-04-30T09:45:17.346Z,987.1
2018-04-30T09:46:18.752Z,987.1
2018-04-30T09:47:20.145Z,987.1
2018-04-30T09:48:21.540Z,987.1
2018-04-30T09:49:22.937Z,987.1
2018-04-30T09:50:24.337Z,987.0
2018-04-30T09:51:25.733Z,987.0
2018-04-30T09:52:27.157Z,987.1
2018-04-30T09:53:28.672Z,987.0
2018-04-30T09:54:30.072Z,987.0
2018-04-30T09:55:31.462Z,987.0
2018-04-30T09:56:32.857Z,987.1
2018-04-30T09:57:34.264Z,987.0
2018-04-30T09:58:35.656Z,987.2
2018-04-30T09:59:37.047Z,987.2
2018-04-30T10:00:38.439Z,987.1
2018-04-30T10:01:39.843Z,987.1
2018-04-30T10:02:41.237Z,987.2
2018-04-30T10:03:42.740Z,987.2
2018-04-30T10:04:44.199Z,987.2
2018-04-30T10:05:45.593Z,987.2
2018-04-30T10:06:46.983Z,987.2
2018-04-30T10:07:48.432Z,987.2
2018-04-30T10:08:49.861Z,987.2
2018-04-30T10:09:51.261Z,987.2
2018-04-30T10:10:52.658Z,987.2
2018-04-30T10:11:54.063Z,987.2
2018-04-30T10:12:55.473Z,987.2
2018-04-30T10:13:56.870Z,987.3
2018-04-30T10:14:58.294Z,987.2
2018-04-30T10:15:59.687Z,987.2
2018-04-30T10:17:01.084Z,987.3
2018-04-30T10:18:02.477Z,987.2
2018-04-30T10:19:03.875Z,987.2
2018-04-30T10:20:05.274Z,987.2
2018-04-30T10:21:06.709Z,987.2
2018-04-30T10:22:08.179Z,987.2
2018-04-30T10:23:09.581Z,987.2
2018-04-30T10:24:10.964Z,987.2
2018-04-30T10:25:12.373Z,987.2
2018-04-30T10:26:13.776Z,987.2
2018-04-30T10:27:15.175Z,987.2
2018-04-30T10:28:16.568Z,987.2
2018-04-30T10:29:17.961Z,987.3
2018-04-30T10:30:19.363Z,987.2
2018-04-30T10:31:20.754Z,987.3
2018-04-30T10:32:22.145Z,987.2
2018-04-30T10:33:23.566Z,987.3
2018-04-30T10:34:24.993Z,987.3
2018-04-30T10:35:26.380Z,987.3
2018-04-30T10:36:27.809Z,987.3
2018-04-30T10:37:29.205Z,987.3
2018-04-30T10:38:30.613Z,987.3
2018-04-30T10:39:32.013Z,987.4
2018-04-30T10:40:33.462Z,987.3
2018-04-30T10:41:34.857Z,987.3
2018-04-30T10:42:36.254Z,987.3
2018-04-30T10:43:37.647Z,987.3
2018-04-30T10:44:39.054Z,987.3
2018-04-30T10:45:40.459Z,987.3
2018-04-30T10:46:41.849Z,987.3
2018-04-30T10:47:43.253Z,987.4
2018-04-30T10:48:44.664Z,987.3
2018-04-30T10:49:46.056Z,987.3
2018-04-30T10:50:47.453Z,987.4
2018-04-30T10:51:48.850Z,987.3
2018-04-30T10:52:50.394Z,987.4
2018-04-30T10:53:51.791Z,987.5
2018-04-30T10:54:53.216Z,987.3
2018-04-30T10:55:54.609Z,987.3
2018-04-30T10:56:56.003Z,987.3
2018-04-30T10:57:57.400Z,987.3
2018-04-30T10:58:58.793Z,987.2
2018-04-30T11:00:00.225Z,987.3
2018-04-30T11:01:01.624Z,987.3
2018-04-30T11:02:03.019Z,987.3
2018-04-30T11:03:04.413Z,987.2
2018-04-30T11:04:05.809Z,987.2
2018-04-30T11:05:07.204Z,987.2
2018-04-30T11:06:08.609Z,987.2
2018-04-30T11:07:10.005Z,987.2
2018-04-30T11:08:11.407Z,987.2
2018-04-30T11:09:12.800Z,987.1
2018-04-30T11:10:14.216Z,987.1
2018-04-30T11:11:15.607Z,987.2
2018-04-30T11:12:17.000Z,987.2
2018-04-30T11:13:18.415Z,987.2
2018-04-30T11:14:19.811Z,987.2
2018-04-30T11:15:21.205Z,987.2
2018-04-30T11:16:22.601Z,987.3
2018-04-30T11:17:24.009Z,987.3
2018-04-30T11:18:25.405Z,987.4
2018-04-30T11:19:26.798Z,987.4
2018-04-30T11:20:28.231Z,987.4
2018-04-30T11:21:29.658Z,987.3
2018-04-30T11:22:31.061Z,987.3
2018-04-30T11:23:32.457Z,987.3
2018-04-30T11:24:33.888Z,987.3
2018-04-30T11:25:35.284Z,987.3
2018-04-30T11:26:36.679Z,987.3
2018-04-30T11:27:38.142Z,987.4
2018-04-30T11:28:39.467Z,987.4
2018-04-30T11:29:40.863Z,987.2
2018-04-30T11:30:42.263Z,987.4
2018-04-30T11:31:43.688Z,987.4
2018-04-30T11:32:45.081Z,987.5
2018-04-30T11:33:46.475Z,987.4
2018-04-30T11:34:47.869Z,987.4
2018-04-30T11:35:49.307Z,987.4
2018-04-30T11:36:50.706Z,987.4
2018-04-30T11:37:52.103Z,987.4
2018-04-30T11:38:53.526Z,987.4
2018-04-30T11:39:54.931Z,987.4
2018-04-30T11:40:56.457Z,987.4
2018-04-30T11:41:57.967Z,987.5
2018-04-30T11:42:59.360Z,987.5
2018-04-30T11:44:00.756Z,987.5
2018-04-30T11:45:02.157Z,987.4
2018-04-30T11:46:03.605Z,987.5
2018-04-30T11:47:05.074Z,987.4
2018-04-30T11:48:06.390Z,987.5
2018-04-30T11:49:07.783Z,987.6
2018-04-30T11:50:09.262Z,987.6
2018-04-30T11:51:10.660Z,987.7
2018-04-30T11:52:12.052Z,987.7
2018-04-30T11:53:13.468Z,987.7
2018-04-30T11:54:14.865Z,987.7
2018-04-30T11:55:16.258Z,987.7
2018-04-30T11:56:17.660Z,987.8
2018-04-30T11:57:19.085Z,987.7
2018-04-30T11:58:20.481Z,987.7
2018-04-30T11:59:21.877Z,987.6
2018-04-30T12:00:23.320Z,987.7
2018-04-30T12:01:24.764Z,987.5
2018-04-30T12:02:26.209Z,987.7
2018-04-30T12:03:27.550Z,987.6
2018-04-30T12:04:29.021Z,987.7
2018-04-30T12:05:30.415Z,987.7
2018-04-30T12:06:31.813Z,987.7
2018-04-30T12:07:33.225Z,987.7
2018-04-30T12:08:34.610Z,987.8
2018-04-30T12:09:36.005Z,987.8
2018-04-30T12:10:37.398Z,987.7
2018-04-30T12:11:38.793Z,987.8
2018-04-30T12:12:40.189Z,987.8
2018-04-30T12:13:41.590Z,987.8
2018-04-30T12:14:42.987Z,987.7
2018-04-30T12:15:44.469Z,987.7
2018-04-30T12:16:45.914Z,987.7
2018-04-30T12:17:47.310Z,987.7
2018-04-30T12:18:48.707Z,987.7
2018-04-30T12:19:50.104Z,987.9
2018-04-30T12:20:51.511Z,987.8
2018-04-30T12:21:52.919Z,987.9
2018-04-30T12:22:54.291Z,987.8
2018-04-30T12:23:55.690Z,987.8
2018-04-30T12:24:57.089Z,987.7
2018-04-30T12:25:58.502Z,987.5
2018-04-30T12:26:59.897Z,987.6
2018-04-30T12:28:01.297Z,987.7
2018-04-30T12:29:02.697Z,987.7
2018-04-30T12:30:04.206Z,987.6
2018-04-30T12:31:05.611Z,987.6
2018-04-30T12:32:07.009Z,987.7
2018-04-30T12:33:08.412Z,987.5
2018-04-30T12:34:09.841Z,987.7
2018-04-30T12:35:11.240Z,987.8
2018-04-30T12:36:12.707Z,987.7
2018-04-30T12:37:14.038Z,987.8
2018-04-30T12:38:15.436Z,987.8
2018-04-30T12:39:16.836Z,987.7
2018-04-30T12:40:18.253Z,987.6
2018-04-30T12:41:19.652Z,987.7
2018-04-30T12:42:21.051Z,987.6
2018-04-30T12:43:22.449Z,987.7
2018-04-30T12:44:23.846Z,987.7
2018-04-30T12:45:25.241Z,987.8
2018-04-30T12:46:26.726Z,987.7
2018-04-30T12:47:28.130Z,987.7
2018-04-30T12:48:29.556Z,987.9
2018-04-30T12:49:31.039Z,987.9
2018-04-30T12:50:32.357Z,987.8
2018-04-30T12:51:33.750Z,987.8
2018-04-30T12:52:35.146Z,987.9
2018-04-30T12:53:36.552Z,987.9
2018-04-30T12:54:37.946Z,987.9
2018-04-30T12:55:39.343Z,988.0
2018-04-30T12:56:40.738Z,988.0
2018-04-30T12:57:42.139Z,988.0
2018-04-30T12:58:43.562Z,988.0
2018-04-30T12:59:44.955Z,988.0
2018-04-30T13:00:46.353Z,988.1
2018-04-30T13:01:47.747Z,988.1
2018-04-30T13:02:49.149Z,988.1
2018-04-30T13:03:50.603Z,988.1
2018-04-30T13:04:51.998Z,988.2
2018-04-30T13:05:53.448Z,988.0
2018-04-30T13:06:54.839Z,987.9
2018-04-30T13:07:56.237Z,988.0
2018-04-30T13:08:57.633Z,988.1
2018-04-30T13:09:59.050Z,988.2
2018-04-30T13:11:00.446Z,988.2